createdAt,value
2023-02-14T00:00:28.210Z,15.55
2023-02-14T00:02:57.773Z,16.08
2023-02-14T00:05:27.487Z,15.18
2023-02-14T00:11:46.813Z,15.57
2023-02-14T00:14:32.942Z,15.65
2023-02-14T00:17:02.919Z,16.73
2023-02-14T00:19:34.655Z,15.77
2023-02-14T00:24:29.632Z,15.63
2023-02-14T00:26:59.144Z,16.42
2023-02-14T00:29:31.655Z,16.15
2023-02-14T00:32:02.629Z,16.30
2023-02-14T00:34:30.022Z,15.93
2023-02-14T00:36:57.339Z,14.95
2023-02-14T00:39:24.600Z,14.70
2023-02-14T00:41:52.129Z,15.65
2023-02-14T00:44:19.459Z,15.27
2023-02-14T00:46:46.769Z,15.02
2023-02-14T00:49:14.114Z,15.02
2023-02-14T00:51:41.510Z,14.68
2023-02-14T00:54:08.825Z,14.98
2023-02-14T00:56:36.312Z,13.43
2023-02-14T00:59:03.610Z,14.15
2023-02-14T01:01:38.932Z,15.13
2023-02-14T01:04:09.300Z,14.70
2023-02-14T01:06:36.781Z,14.63
2023-02-14T01:09:04.666Z,15.23
2023-02-14T01:11:31.916Z,15.25
2023-02-14T01:13:59.915Z,14.50
2023-02-14T01:20:15.565Z,15.43
2023-02-14T01:22:42.842Z,15.80
2023-02-14T01:25:17.661Z,15.05
2023-02-14T01:27:47.029Z,15.73
2023-02-14T01:30:14.935Z,14.48
2023-02-14T01:32:44.467Z,14.75
2023-02-14T01:35:11.774Z,15.13
2023-02-14T01:37:41.558Z,15.60
2023-02-14T01:40:12.270Z,15.88
2023-02-14T01:42:39.890Z,14.68
2023-02-14T01:45:29.906Z,14.82
2023-02-14T01:47:59.912Z,15.10
2023-02-14T01:50:35.805Z,15.18
2023-02-14T01:53:21.402Z,14.93
2023-02-14T01:55:57.068Z,14.90
2023-02-14T01:58:29.650Z,15.20
2023-02-14T02:01:00.217Z,15.23
2023-02-14T02:03:54.436Z,15.67
2023-02-14T02:06:31.796Z,15.60
2023-02-14T02:09:14.138Z,15.50
2023-02-14T02:11:42.805Z,14.95
2023-02-14T02:18:02.198Z,15.07
2023-02-14T02:20:48.310Z,14.80
2023-02-14T02:23:53.422Z,15.67
2023-02-14T02:26:51.871Z,15.23
2023-02-14T02:29:24.994Z,15.87
2023-02-14T02:32:07.776Z,16.53
2023-02-14T02:35:14.154Z,16.97
2023-02-14T02:38:20.608Z,16.07
2023-02-14T02:41:32.120Z,15.98
2023-02-14T02:44:20.782Z,16.63
2023-02-14T02:47:07.401Z,16.40
2023-02-14T02:50:00.942Z,17.47
2023-02-14T02:53:03.615Z,16.73
2023-02-14T02:56:20.216Z,18.47
2023-02-14T02:59:04.922Z,17.53
2023-02-14T03:01:39.671Z,18.07
2023-02-14T03:04:29.515Z,18.03
2023-02-14T03:07:00.096Z,23.30
2023-02-14T03:09:27.291Z,22.43
2023-02-14T03:12:28.142Z,19.90
2023-02-14T03:15:00.465Z,19.87
2023-02-14T03:17:52.745Z,19.47
2023-02-14T03:20:41.623Z,18.63
2023-02-14T03:23:23.405Z,20.07
2023-02-14T03:25:56.294Z,19.48
2023-02-14T03:32:41.519Z,19.23
2023-02-14T03:35:29.457Z,19.73
2023-02-14T03:38:21.782Z,20.40
2023-02-14T03:41:00.486Z,20.60
2023-02-14T03:43:34.374Z,19.17
2023-02-14T03:46:16.652Z,19.27
2023-02-14T03:48:48.356Z,18.60
2023-02-14T03:51:18.543Z,19.02
2023-02-14T03:53:53.838Z,19.93
2023-02-14T03:56:34.649Z,19.38
2023-02-14T03:59:13.606Z,19.30
2023-02-14T04:01:55.585Z,19.80
2023-02-14T04:04:27.055Z,20.45
2023-02-14T04:06:54.913Z,20.17
2023-02-14T04:09:22.259Z,20.95
2023-02-14T04:11:50.549Z,20.48
2023-02-14T04:14:22.743Z,21.98
2023-02-14T04:17:08.439Z,20.80
2023-02-14T04:19:35.892Z,21.25
2023-02-14T04:22:03.179Z,20.60
2023-02-14T04:24:35.919Z,20.70
2023-02-14T04:27:12.364Z,20.10
2023-02-14T04:29:44.048Z,19.60
2023-02-14T04:32:17.788Z,20.83
2023-02-14T04:34:45.602Z,18.98
2023-02-14T04:37:21.337Z,19.15
2023-02-14T04:39:51.315Z,18.60
2023-02-14T04:42:18.600Z,19.88
2023-02-14T04:44:45.886Z,19.98
2023-02-14T04:47:14.354Z,20.40
2023-02-14T04:49:41.709Z,19.33
2023-02-14T04:52:09.486Z,20.53
2023-02-14T04:54:36.777Z,20.67
2023-02-14T04:57:04.304Z,18.00
2023-02-14T04:59:34.154Z,18.93
2023-02-14T05:02:01.530Z,18.90
2023-02-14T05:04:28.826Z,19.40
2023-02-14T05:06:56.077Z,18.38
2023-02-14T05:09:23.435Z,17.83
2023-02-14T05:11:50.761Z,17.70
2023-02-14T05:14:18.031Z,18.23
2023-02-14T05:16:47.834Z,17.45
2023-02-14T05:19:15.125Z,16.23
2023-02-14T05:21:44.740Z,16.37
2023-02-14T05:24:12.075Z,16.00
2023-02-14T05:26:40.479Z,16.87
2023-02-14T05:29:07.887Z,16.60
2023-02-14T05:31:37.908Z,17.00
2023-02-14T05:34:07.926Z,15.97
2023-02-14T05:36:35.246Z,16.00
2023-02-14T05:39:02.543Z,15.70
2023-02-14T05:41:30.085Z,15.63
2023-02-14T05:43:59.630Z,16.23
2023-02-14T05:46:26.975Z,14.95
2023-02-14T05:48:54.357Z,16.07
2023-02-14T05:51:24.138Z,16.73
2023-02-14T05:53:51.482Z,15.10
2023-02-14T05:56:18.795Z,15.87
2023-02-14T05:58:46.106Z,15.85
2023-02-14T06:01:13.537Z,15.20
2023-02-14T06:03:40.834Z,16.03
2023-02-14T06:06:08.224Z,17.00
2023-02-14T06:08:38.017Z,16.77
2023-02-14T06:11:07.752Z,15.70
2023-02-14T06:13:41.485Z,16.70
2023-02-14T06:16:08.909Z,15.20
2023-02-14T06:18:36.374Z,15.10
2023-02-14T06:21:03.887Z,15.70
2023-02-14T06:23:35.839Z,14.02
2023-02-14T06:26:03.778Z,14.93
2023-02-14T06:28:31.104Z,14.53
2023-02-14T06:30:58.834Z,15.10
2023-02-14T06:33:29.017Z,13.93
2023-02-14T06:35:59.154Z,13.60
2023-02-14T06:38:28.576Z,13.80
2023-02-14T06:41:02.469Z,14.20
2023-02-14T06:43:29.977Z,14.13
2023-02-14T06:45:57.325Z,14.35
2023-02-14T06:48:24.641Z,14.27
2023-02-14T06:50:54.407Z,14.47
2023-02-14T06:53:22.018Z,14.38
2023-02-14T06:55:54.084Z,14.63
2023-02-14T06:58:21.489Z,14.03
2023-02-14T07:00:48.794Z,14.63
2023-02-14T07:03:16.381Z,13.57
2023-02-14T07:05:45.225Z,13.47
2023-02-14T07:08:16.069Z,13.13
2023-02-14T07:10:45.761Z,11.77
2023-02-14T07:13:13.403Z,12.68
2023-02-14T07:15:42.963Z,12.48
2023-02-14T07:18:12.818Z,13.02
2023-02-14T07:20:42.605Z,12.10
2023-02-14T07:23:12.272Z,12.02
2023-02-14T07:25:40.734Z,12.07
2023-02-14T07:28:10.441Z,12.20
2023-02-14T07:30:40.368Z,12.80
2023-02-14T07:33:07.748Z,13.53
2023-02-14T07:35:35.592Z,12.60
2023-02-14T07:38:02.840Z,13.02
2023-02-14T07:40:30.187Z,13.60
2023-02-14T07:42:59.061Z,12.55
2023-02-14T07:45:27.151Z,12.43
2023-02-14T07:48:02.017Z,13.63
2023-02-14T07:50:29.466Z,12.53
2023-02-14T07:52:57.232Z,13.90
2023-02-14T07:55:27.490Z,16.02
2023-02-14T07:57:57.149Z,15.50
2023-02-14T08:00:24.512Z,13.93
2023-02-14T08:02:51.791Z,18.52
2023-02-14T08:05:21.832Z,18.10
2023-02-14T08:07:50.507Z,14.82
2023-02-14T08:10:17.914Z,14.83
2023-02-14T08:13:11.522Z,17.87
2023-02-14T08:15:57.584Z,15.50
2023-02-14T08:18:29.266Z,14.25
2023-02-14T08:20:56.985Z,15.05
2023-02-14T08:23:24.654Z,17.65
2023-02-14T08:25:55.585Z,18.45
2023-02-14T08:28:23.515Z,15.60
2023-02-14T08:30:53.902Z,14.75
2023-02-14T08:33:24.285Z,15.07
2023-02-14T08:35:52.290Z,15.05
2023-02-14T08:38:19.854Z,13.55
2023-02-14T08:40:47.427Z,14.25
2023-02-14T08:43:15.076Z,14.52
2023-02-14T08:45:42.543Z,13.75
2023-02-14T08:48:11.766Z,15.40
2023-02-14T08:50:40.057Z,13.20
2023-02-14T08:53:09.452Z,14.77
2023-02-14T08:55:36.956Z,13.40
2023-02-14T08:58:04.939Z,14.55
2023-02-14T09:00:33.476Z,13.43
2023-02-14T09:03:05.320Z,13.35
2023-02-14T09:08:04.734Z,13.40
2023-02-14T09:10:34.401Z,14.35
2023-02-14T09:13:04.218Z,13.68
2023-02-14T09:15:33.776Z,12.98
2023-02-14T09:18:05.723Z,12.60
2023-02-14T09:20:35.864Z,13.48
2023-02-14T09:23:05.596Z,14.38
2023-02-14T09:25:35.752Z,14.68
2023-02-14T09:28:03.465Z,13.10
2023-02-14T09:30:30.853Z,13.98
2023-02-14T09:32:58.255Z,12.98
2023-02-14T09:35:25.511Z,13.80
2023-02-14T09:38:11.573Z,12.95
2023-02-14T09:40:38.926Z,12.77
2023-02-14T09:43:30.756Z,13.05
2023-02-14T09:46:02.454Z,13.00
2023-02-14T09:51:17.732Z,12.77
2023-02-14T09:53:49.668Z,14.48
2023-02-14T09:56:25.408Z,14.20
2023-02-14T09:59:01.614Z,13.63
2023-02-14T10:01:34.478Z,13.23
2023-02-14T10:04:27.410Z,14.35
2023-02-14T10:07:01.016Z,13.93
2023-02-14T10:10:05.838Z,14.45
2023-02-14T10:13:02.109Z,14.95
2023-02-14T10:15:34.754Z,14.32
2023-02-14T10:18:05.567Z,14.93
2023-02-14T10:20:37.748Z,15.27
2023-02-14T10:23:09.473Z,15.63
2023-02-14T10:25:52.789Z,15.45
2023-02-14T10:28:30.654Z,15.40
2023-02-14T10:31:04.671Z,15.18
2023-02-14T10:33:40.314Z,15.13
2023-02-14T10:36:29.990Z,14.75
2023-02-14T10:39:07.034Z,14.82
2023-02-14T10:41:49.318Z,15.20
2023-02-14T10:44:51.520Z,14.90
2023-02-14T10:49:59.771Z,13.90
2023-02-14T10:52:53.274Z,13.50
2023-02-14T10:55:33.071Z,14.38
2023-02-14T10:58:38.745Z,14.05
2023-02-14T11:01:12.302Z,15.07
2023-02-14T11:03:45.138Z,15.27
2023-02-14T11:06:12.729Z,15.10
2023-02-14T11:08:41.477Z,15.43
2023-02-14T11:11:37.581Z,15.77
2023-02-14T11:14:22.154Z,16.50
2023-02-14T11:16:52.100Z,15.00
2023-02-14T11:19:28.506Z,15.77
2023-02-14T11:22:10.300Z,16.83
2023-02-14T11:27:11.765Z,14.70
2023-02-14T11:29:39.041Z,14.50
2023-02-14T11:32:22.775Z,14.85
2023-02-14T11:35:03.044Z,15.35
2023-02-14T11:37:37.127Z,14.98
2023-02-14T11:40:31.384Z,14.20
2023-02-14T11:43:14.575Z,15.05
2023-02-14T11:45:44.224Z,15.63
2023-02-14T11:48:37.366Z,15.15
2023-02-14T11:51:15.772Z,15.50
2023-02-14T11:53:47.608Z,15.48
2023-02-14T11:58:45.473Z,16.17
2023-02-14T12:01:22.426Z,16.65
2023-02-14T12:03:51.063Z,16.42
2023-02-14T12:06:26.678Z,16.73
2023-02-14T12:09:12.799Z,16.23
2023-02-14T12:11:40.508Z,16.85
2023-02-14T12:14:21.708Z,16.67
2023-02-14T12:17:03.330Z,16.48
2023-02-14T12:19:55.376Z,15.75
2023-02-14T12:25:16.787Z,16.20
2023-02-14T12:27:51.153Z,16.40
2023-02-14T12:30:19.778Z,16.70
2023-02-14T12:32:51.709Z,16.35
2023-02-14T12:35:34.996Z,16.10
2023-02-14T12:38:13.218Z,16.50
2023-02-14T12:41:20.041Z,18.60
2023-02-14T12:43:55.956Z,18.17
2023-02-14T12:46:31.944Z,18.08
2023-02-14T12:49:07.814Z,18.00
2023-02-14T12:51:52.450Z,17.98
2023-02-14T12:55:20.053Z,18.48
2023-02-14T12:57:59.871Z,17.65
2023-02-14T13:00:52.334Z,17.58
2023-02-14T13:03:40.422Z,17.88
2023-02-14T13:06:34.266Z,18.13
2023-02-14T13:09:01.636Z,18.77
2023-02-14T13:11:50.705Z,18.88
2023-02-14T13:14:20.948Z,18.50
2023-02-14T13:17:02.019Z,17.90
2023-02-14T13:20:39.069Z,17.60
2023-02-14T13:23:16.377Z,18.25
2023-02-14T13:25:54.501Z,18.90
2023-02-14T13:28:25.577Z,19.48
2023-02-14T13:30:54.882Z,19.80
2023-02-14T13:33:37.096Z,18.83
2023-02-14T13:36:10.242Z,18.88
2023-02-14T13:38:45.781Z,18.35
2023-02-14T13:41:15.245Z,19.13
2023-02-14T13:43:58.688Z,19.05
2023-02-14T13:46:32.088Z,19.25
2023-02-14T13:49:07.521Z,18.70
2023-02-14T13:52:05.618Z,18.75
2023-02-14T13:54:32.877Z,18.05
2023-02-14T13:57:36.807Z,18.33
2023-02-14T14:00:19.503Z,20.35
2023-02-14T14:02:54.648Z,19.35
2023-02-14T14:05:32.494Z,19.42
2023-02-14T14:08:18.256Z,18.77
2023-02-14T14:10:54.537Z,19.27
2023-02-14T14:13:40.325Z,18.42
2023-02-14T14:16:28.837Z,18.30
2023-02-14T14:19:17.143Z,20.20
2023-02-14T14:22:00.845Z,17.08
2023-02-14T14:24:33.465Z,19.50
2023-02-14T14:27:22.793Z,19.33
2023-02-14T14:29:58.563Z,19.75
2023-02-14T14:32:32.167Z,19.30
2023-02-14T14:35:04.573Z,18.67
2023-02-14T14:37:38.654Z,19.40
2023-02-14T14:40:08.404Z,23.38
2023-02-14T14:42:40.208Z,20.42
2023-02-14T14:47:44.353Z,19.48
2023-02-14T14:50:20.047Z,19.45
2023-02-14T14:52:50.005Z,20.13
2023-02-14T14:55:21.766Z,21.65
2023-02-14T15:00:30.484Z,20.88
2023-02-14T15:03:01.296Z,21.23
2023-02-14T15:05:32.730Z,22.93
2023-02-14T15:08:16.564Z,22.30
2023-02-14T15:10:47.396Z,22.90
2023-02-14T15:13:35.967Z,21.73
2023-02-14T15:16:05.867Z,21.95
2023-02-14T15:18:36.182Z,23.48
2023-02-14T15:21:07.916Z,22.52
2023-02-14T15:23:37.857Z,22.40
2023-02-14T15:26:05.347Z,21.40
2023-02-14T15:28:35.462Z,23.42
2023-02-14T15:31:07.775Z,24.42
2023-02-14T15:33:36.087Z,22.48
2023-02-14T15:36:08.078Z,23.13
2023-02-14T15:38:41.000Z,22.70
2023-02-14T15:41:16.686Z,24.38
2023-02-14T15:43:44.243Z,22.50
2023-02-14T15:46:36.199Z,22.95
2023-02-14T15:49:12.505Z,22.92
2023-02-14T15:51:41.341Z,23.35
2023-02-14T15:54:21.657Z,24.50
2023-02-14T15:56:54.461Z,25.20
2023-02-14T15:59:29.743Z,22.88
2023-02-14T16:01:58.432Z,24.90
2023-02-14T16:04:33.863Z,26.00
2023-02-14T16:07:26.623Z,24.52
2023-02-14T16:10:28.990Z,24.00
2023-02-14T16:12:59.241Z,24.67
2023-02-14T16:15:32.548Z,24.70
2023-02-14T16:18:06.888Z,25.15
2023-02-14T16:20:47.102Z,24.75
2023-02-14T16:23:24.425Z,25.08
2023-02-14T16:25:54.754Z,24.25
2023-02-14T16:28:22.342Z,25.08
2023-02-14T16:30:55.719Z,24.58
2023-02-14T16:33:26.868Z,24.65
2023-02-14T16:35:55.011Z,22.58
2023-02-14T16:38:22.646Z,23.58
2023-02-14T16:40:54.947Z,22.92
2023-02-14T16:43:22.266Z,22.77
2023-02-14T16:45:49.718Z,23.05
2023-02-14T16:48:17.071Z,24.88
2023-02-14T16:50:46.324Z,23.77
2023-02-14T16:53:28.864Z,22.77
2023-02-14T16:55:57.649Z,23.15
2023-02-14T16:58:31.588Z,23.08
2023-02-14T17:01:01.583Z,22.58
2023-02-14T17:03:31.385Z,21.52
2023-02-14T17:06:02.996Z,21.48
2023-02-14T17:08:31.104Z,21.27
2023-02-14T17:11:02.078Z,21.05
2023-02-14T17:13:39.249Z,22.15
2023-02-14T17:16:11.092Z,20.20
2023-02-14T17:18:39.465Z,20.23
2023-02-14T17:21:06.818Z,20.90
2023-02-14T17:23:36.412Z,20.02
2023-02-14T17:26:03.935Z,18.17
2023-02-14T17:28:31.182Z,17.50
2023-02-14T17:31:00.706Z,18.13
2023-02-14T17:33:30.421Z,17.67
2023-02-14T17:36:10.130Z,19.10
2023-02-14T17:38:43.429Z,18.40
2023-02-14T17:41:22.388Z,16.67
2023-02-14T17:43:50.766Z,16.83
2023-02-14T17:46:18.708Z,18.08
2023-02-14T17:48:49.160Z,17.35
2023-02-14T17:51:18.051Z,17.17
2023-02-14T17:53:45.370Z,16.88
2023-02-14T17:56:23.803Z,17.52
2023-02-14T17:58:55.035Z,16.90
2023-02-14T18:01:27.991Z,16.52
2023-02-14T18:03:57.962Z,17.40
2023-02-14T18:06:26.694Z,17.30
2023-02-14T18:08:59.295Z,17.92
2023-02-14T18:11:27.998Z,17.48
2023-02-14T18:13:59.684Z,16.65
2023-02-14T18:16:27.017Z,16.92
2023-02-14T18:18:55.056Z,17.10
2023-02-14T18:21:24.527Z,17.25
2023-02-14T18:23:52.066Z,16.52
2023-02-14T18:26:19.804Z,16.38
2023-02-14T18:28:47.238Z,16.48
2023-02-14T18:31:18.028Z,16.77
2023-02-14T18:33:46.821Z,16.77
2023-02-14T18:36:21.311Z,16.58
2023-02-14T18:38:49.176Z,17.67
2023-02-14T18:41:19.014Z,15.73
2023-02-14T18:43:49.162Z,16.13
2023-02-14T18:46:22.605Z,16.52
2023-02-14T18:48:50.866Z,15.57
2023-02-14T18:51:21.474Z,14.70
2023-02-14T18:53:52.273Z,16.65
2023-02-14T18:56:22.107Z,15.73
2023-02-14T18:58:52.858Z,16.27
2023-02-14T19:01:25.105Z,17.27
2023-02-14T19:03:54.893Z,16.75
2023-02-14T19:06:24.964Z,15.95
2023-02-14T19:08:52.368Z,16.42
2023-02-14T19:11:26.156Z,16.90
2023-02-14T19:13:59.509Z,16.70
2023-02-14T19:16:34.160Z,15.07
2023-02-14T19:19:03.891Z,16.70
2023-02-14T19:21:35.026Z,16.65
2023-02-14T19:24:03.978Z,16.38
2023-02-14T19:26:37.653Z,17.40
2023-02-14T19:29:08.365Z,16.98
2023-02-14T19:31:38.167Z,18.20
2023-02-14T19:34:06.663Z,17.70
2023-02-14T19:36:37.534Z,16.85
2023-02-14T19:39:05.542Z,16.98
2023-02-14T19:41:35.237Z,17.77
2023-02-14T19:44:04.977Z,17.08
2023-02-14T19:46:33.171Z,16.75
2023-02-14T19:49:01.797Z,17.35
2023-02-14T19:51:31.559Z,15.52
2023-02-14T19:54:03.112Z,15.88
2023-02-14T19:56:36.442Z,17.23
2023-02-14T19:59:09.051Z,16.02
2023-02-14T20:01:39.630Z,16.65
2023-02-14T20:04:12.129Z,16.27
2023-02-14T20:06:42.475Z,17.95
2023-02-14T20:09:09.863Z,19.10
2023-02-14T20:11:51.515Z,17.98
2023-02-14T20:14:22.351Z,16.98
2023-02-14T20:16:50.428Z,18.23
2023-02-14T20:19:21.306Z,16.33
2023-02-14T20:21:50.555Z,18.47
2023-02-14T20:24:21.650Z,16.83
2023-02-14T20:26:52.090Z,16.85
2023-02-14T20:29:20.432Z,18.58
2023-02-14T20:31:53.125Z,17.70
2023-02-14T20:34:20.949Z,19.73
2023-02-14T20:36:55.645Z,18.67
2023-02-14T20:39:29.172Z,17.17
2023-02-14T20:41:56.686Z,18.50
2023-02-14T20:44:26.478Z,17.90
2023-02-14T20:46:57.283Z,16.33
2023-02-14T20:49:28.894Z,17.63
2023-02-14T20:51:56.873Z,17.67
2023-02-14T20:54:26.702Z,18.75
2023-02-14T20:56:54.539Z,17.60
2023-02-14T20:59:27.103Z,17.90
2023-02-14T21:01:55.945Z,18.17
2023-02-14T21:04:25.784Z,17.15
2023-02-14T21:06:57.652Z,17.15
2023-02-14T21:09:28.290Z,17.00
2023-02-14T21:11:55.680Z,17.10
2023-02-14T21:14:23.007Z,17.27
2023-02-14T21:16:52.551Z,17.08
2023-02-14T21:19:19.847Z,17.42
2023-02-14T21:21:52.231Z,17.55
2023-02-14T21:24:21.722Z,16.23
2023-02-14T21:26:49.086Z,17.00
2023-02-14T21:29:18.759Z,17.45
2023-02-14T21:31:46.070Z,17.42
2023-02-14T21:34:15.579Z,17.40
2023-02-14T21:36:45.378Z,18.17
2023-02-14T21:39:13.102Z,18.95
2023-02-14T21:41:45.094Z,19.20
2023-02-14T21:44:34.853Z,18.52
2023-02-14T21:47:02.197Z,19.80
2023-02-14T21:49:48.019Z,19.25
2023-02-14T21:52:15.324Z,19.23
2023-02-14T21:54:43.049Z,17.42
2023-02-14T21:57:12.707Z,16.90
2023-02-14T21:59:40.381Z,17.70
2023-02-14T22:02:08.162Z,19.42
2023-02-14T22:04:38.164Z,17.83
2023-02-14T22:07:05.697Z,18.35
2023-02-14T22:09:33.080Z,17.98
2023-02-14T22:12:00.460Z,18.30
2023-02-14T22:14:30.137Z,18.55
2023-02-14T22:16:59.659Z,17.90
2023-02-14T22:19:29.303Z,18.15
2023-02-14T22:22:01.402Z,18.30
2023-02-14T22:24:28.800Z,20.38
2023-02-14T22:26:56.054Z,19.95
2023-02-14T22:29:23.332Z,19.23
2023-02-14T22:31:50.808Z,19.57
2023-02-14T22:34:20.510Z,20.67
2023-02-14T22:36:51.201Z,18.47
2023-02-14T22:39:18.689Z,18.13
2023-02-14T22:41:46.615Z,17.73
2023-02-14T22:44:14.183Z,16.50
2023-02-14T22:46:42.095Z,16.10
2023-02-14T22:49:12.398Z,15.63
2023-02-14T22:51:43.149Z,16.83
2023-02-14T22:54:15.990Z,15.47
2023-02-14T22:56:45.706Z,16.45
2023-02-14T22:59:21.504Z,15.48
2023-02-14T23:01:50.124Z,16.25
2023-02-14T23:04:19.340Z,15.87
2023-02-14T23:06:52.553Z,15.70
2023-02-14T23:09:20.367Z,15.50
2023-02-14T23:11:48.061Z,15.60
2023-02-14T23:14:35.515Z,16.52
2023-02-14T23:17:16.056Z,15.93
2023-02-14T23:20:03.243Z,16.23
2023-02-14T23:22:37.504Z,15.43
2023-02-14T23:25:08.272Z,16.50
2023-02-14T23:27:38.683Z,16.23
2023-02-14T23:30:08.066Z,16.50
2023-02-14T23:32:35.768Z,15.82
2023-02-14T23:35:03.216Z,15.40
2023-02-14T23:37:30.640Z,17.00
2023-02-14T23:40:00.171Z,16.50
2023-02-14T23:42:28.238Z,15.98
2023-02-14T23:45:15.543Z,16.73
2023-02-14T23:47:45.042Z,15.90
2023-02-14T23:50:12.577Z,15.50
2023-02-14T23:52:42.388Z,16.77
2023-02-14T23:55:09.760Z,16.67
2023-02-14T23:57:37.602Z,17.07
